Time;durP1;ratioP1;P1;durP2;ratioP2;P2;SDS_P1;SDS_P2;PMS_P1;PMS_P2;Temp;Humidity;BMP_temperature;BMP_pressure;BME280_temperature;BME280_humidity;BME280_pressure;Samples;Min_cycle;Max_cycle;Signal;HPM_P1;HPM_P2
2021/01/05 00:00:38;;;;;;;7.33;6.07;;;3.20;99.90;;;;;;5013744;28;20204;-62
2021/01/05 00:03:05;;;;;;;7.30;6.20;;;3.20;99.90;;;;;;5013358;28;20266;-62
2021/01/05 00:05:32;;;;;;;7.47;6.17;;;3.20;99.90;;;;;;5014632;28;20204;-61
2021/01/05 00:07:59;;;;;;;7.40;6.43;;;3.20;99.90;;;;;;5015413;28;20220;-62
2021/01/05 00:10:25;;;;;;;7.67;6.33;;;3.20;99.90;;;;;;5018071;28;20205;-63
2021/01/05 00:12:52;;;;;;;8.13;6.60;;;3.20;99.90;;;;;;5014590;28;20211;-62
2021/01/05 00:15:18;;;;;;;6.50;5.60;;;3.20;99.90;;;;;;5014664;28;22498;-62
2021/01/05 00:17:45;;;;;;;8.87;6.20;;;3.20;99.90;;;;;;5015661;28;20243;-63
2021/01/05 00:20:15;;;;;;;9.33;6.20;;;3.20;99.90;;;;;;5013230;28;20232;-63
2021/01/05 00:22:42;;;;;;;7.93;6.30;;;3.20;99.90;;;;;;5015019;28;20208;-63
2021/01/05 00:25:11;;;;;;;8.37;6.00;;;3.20;99.90;;;;;;5014741;28;20199;-62
2021/01/05 00:27:37;;;;;;;8.67;6.90;;;3.20;99.90;;;;;;5024471;28;20236;-61
2021/01/05 00:30:09;;;;;;;7.23;5.53;;;3.20;99.90;;;;;;5019457;28;20213;-62
2021/01/05 00:32:35;;;;;;;8.43;6.13;;;3.20;99.90;;;;;;5011125;28;20196;-63
2021/01/05 00:35:02;;;;;;;8.50;6.20;;;3.20;99.90;;;;;;5012664;28;20201;-62
2021/01/05 00:37:28;;;;;;;7.87;5.60;;;3.20;99.90;;;;;;5008184;28;20248;-64
2021/01/05 00:39:55;;;;;;;8.40;6.27;;;3.20;99.90;;;;;;5008237;28;20990;-63
2021/01/05 00:42:22;;;;;;;7.53;6.27;;;3.20;99.90;;;;;;5013293;28;20564;-62
2021/01/05 00:44:48;;;;;;;6.83;5.57;;;3.20;99.90;;;;;;5009710;28;20258;-62
2021/01/05 00:47:15;;;;;;;8.20;6.23;;;3.20;99.90;;;;;;5009398;28;20205;-63
2021/01/05 00:49:41;;;;;;;7.50;6.43;;;3.20;99.90;;;;;;5010572;28;20204;-62
2021/01/05 00:52:08;;;;;;;7.97;6.57;;;3.20;99.90;;;;;;5009071;28;20201;-64
2021/01/05 00:54:34;;;;;;;6.20;5.60;;;3.20;99.90;;;;;;5010704;28;20207;-63
2021/01/05 00:57:04;;;;;;;7.20;6.33;;;3.20;99.90;;;;;;5011073;28;20215;-63
2021/01/05 00:59:31;;;;;;;7.53;6.20;;;3.20;99.90;;;;;;5008204;28;20228;-64
2021/01/05 01:01:57;;;;;;;7.00;5.83;;;3.20;99.90;;;;;;5010386;28;20208;-62
2021/01/05 01:04:24;;;;;;;8.40;5.97;;;3.20;99.90;;;;;;5012091;28;20641;-61
2021/01/05 01:06:51;;;;;;;6.60;5.90;;;3.20;99.90;;;;;;5007804;28;20207;-63
2021/01/05 01:09:17;;;;;;;7.23;5.97;;;3.20;99.90;;;;;;5014400;28;20673;-62
2021/01/05 01:12:04;;;;;;;8.47;5.70;;;3.10;99.90;;;;;;5007600;28;20205;-63
2021/01/05 01:14:31;;;;;;;7.00;5.80;;;3.10;99.90;;;;;;5012816;28;20229;-63
2021/01/05 01:16:57;;;;;;;6.80;6.10;;;3.10;99.90;;;;;;5011511;28;20213;-63
2021/01/05 01:19:24;;;;;;;8.00;5.83;;;3.10;99.90;;;;;;5012399;28;20239;-63
2021/01/05 01:21:53;;;;;;;6.10;5.40;;;3.20;99.90;;;;;;5014703;28;20314;-62
2021/01/05 01:24:21;;;;;;;7.77;6.27;;;3.10;99.90;;;;;;5010588;28;20254;-62
2021/01/05 01:26:48;;;;;;;11.23;5.73;;;3.20;99.90;;;;;;5010285;28;20639;-62
2021/01/05 01:29:17;;;;;;;6.73;5.97;;;3.20;99.90;;;;;;5010431;28;20211;-62
2021/01/05 01:31:43;;;;;;;7.30;5.83;;;3.10;99.90;;;;;;5011499;28;20201;-61
2021/01/05 01:34:10;;;;;;;9.30;6.90;;;3.20;99.90;;;;;;5008878;28;22347;-61
2021/01/05 01:36:36;;;;;;;6.77;5.80;;;3.10;99.90;;;;;;5010983;28;20605;-62
2021/01/05 01:39:05;;;;;;;6.30;5.67;;;3.10;99.90;;;;;;5012208;28;20282;-61
2021/01/05 01:41:32;;;;;;;7.83;6.27;;;3.10;99.90;;;;;;5011110;28;20204;-61
2021/01/05 01:43:59;;;;;;;7.63;6.07;;;3.10;99.90;;;;;;5009869;28;20200;-62
2021/01/05 01:46:32;;;;;;;10.23;6.80;;;3.10;99.90;;;;;;5009993;28;20978;-63
2021/01/05 01:48:59;;;;;;;7.23;6.20;;;3.00;99.90;;;;;;5009818;28;20266;-63
2021/01/05 01:51:27;;;;;;;8.80;6.83;;;3.00;99.90;;;;;;5008263;28;20197;-62
2021/01/05 01:54:08;;;;;;;8.37;6.87;;;3.00;99.90;;;;;;5008809;28;20200;-64
2021/01/05 01:57:18;;;;;;;7.73;6.73;;;2.90;99.90;;;;;;5008447;28;20262;-63
2021/01/05 02:00:05;;;;;;;9.73;7.37;;;2.90;99.90;;;;;;5009384;28;21008;-63
2021/01/05 02:02:43;;;;;;;8.83;6.73;;;2.90;99.90;;;;;;5009132;28;20228;-63
2021/01/05 02:05:12;;;;;;;8.33;6.73;;;2.90;99.90;;;;;;5010429;28;20222;-62
2021/01/05 02:08:07;;;;;;;9.10;7.10;;;2.80;99.90;;;;;;5009637;28;20561;-64
2021/01/05 02:10:47;;;;;;;9.70;6.93;;;2.80;99.90;;;;;;5009726;28;20201;-63
2021/01/05 02:13:37;;;;;;;9.43;7.27;;;2.80;99.90;;;;;;5011266;28;20196;-63
2021/01/05 02:16:20;;;;;;;10.90;7.77;;;2.70;99.90;;;;;;5011439;28;20200;-61
2021/01/05 02:18:52;;;;;;;10.10;7.10;;;2.80;99.90;;;;;;5009509;28;20223;-62
2021/01/05 02:21:23;;;;;;;9.47;7.30;;;2.70;99.90;;;;;;5009061;28;20197;-62
2021/01/05 02:24:09;;;;;;;10.17;7.77;;;2.70;99.90;;;;;;5009959;28;20203;-62
2021/01/05 02:26:43;;;;;;;10.27;7.50;;;2.70;99.90;;;;;;5006573;28;20664;-63
2021/01/05 02:29:14;;;;;;;12.93;8.27;;;2.70;99.90;;;;;;5011234;28;20207;-62
2021/01/05 02:32:14;;;;;;;11.13;7.90;;;2.70;99.90;;;;;;5008317;28;21931;-62
2021/01/05 02:35:16;;;;;;;10.40;7.47;;;2.70;99.90;;;;;;5007115;28;20208;-62
2021/01/05 02:37:59;;;;;;;9.47;7.63;;;2.70;99.90;;;;;;5008601;28;20290;-63
2021/01/05 02:40:39;;;;;;;11.33;8.20;;;2.60;99.90;;;;;;5005474;28;20305;-62
2021/01/05 02:43:34;;;;;;;10.70;7.83;;;2.60;99.90;;;;;;5011887;28;20322;-62
2021/01/05 02:46:21;;;;;;;11.73;8.30;;;2.60;99.90;;;;;;5006764;28;20197;-62
2021/01/05 02:49:03;;;;;;;12.13;8.50;;;2.60;99.90;;;;;;5007591;28;20192;-63
2021/01/05 02:51:52;;;;;;;10.97;8.17;;;2.60;99.90;;;;;;5008803;28;20307;-63
2021/01/05 02:54:59;;;;;;;11.53;8.73;;;2.60;99.90;;;;;;5008423;28;20261;-63
2021/01/05 02:57:53;;;;;;;12.53;9.07;;;2.50;99.90;;;;;;5010488;28;20220;-62
2021/01/05 03:00:55;;;;;;;12.40;9.07;;;2.60;99.90;;;;;;5009909;28;20220;-61
2021/01/05 03:03:44;;;;;;;12.90;9.53;;;2.60;99.90;;;;;;5008982;28;20201;-64
2021/01/05 03:06:34;;;;;;;13.53;9.23;;;2.60;99.90;;;;;;5006706;28;20200;-62
2021/01/05 03:09:27;;;;;;;12.23;9.13;;;2.50;99.90;;;;;;5010262;28;20654;-62
2021/01/05 03:12:19;;;;;;;13.37;9.30;;;2.60;99.90;;;;;;5005889;28;20788;-63
2021/01/05 03:14:57;;;;;;;14.13;9.50;;;2.50;99.90;;;;;;5009819;28;20204;-62
2021/01/05 03:17:31;;;;;;;12.60;9.07;;;2.50;99.90;;;;;;5009119;28;20196;-64
2021/01/05 03:20:09;;;;;;;12.20;9.20;;;2.50;99.90;;;;;;5010057;28;20553;-62
2021/01/05 03:22:40;;;;;;;12.93;9.13;;;2.50;99.90;;;;;;5008473;28;20204;-63
2021/01/05 03:25:08;;;;;;;13.43;9.63;;;2.50;99.90;;;;;;5007923;28;20542;-62
2021/01/05 03:27:35;;;;;;;13.20;9.40;;;2.50;99.90;;;;;;5008631;28;20764;-61
2021/01/05 03:30:10;;;;;;;14.07;9.07;;;2.50;99.90;;;;;;5007704;28;20208;-62
2021/01/05 03:32:38;;;;;;;14.03;9.70;;;2.50;99.90;;;;;;5007588;28;20199;-63
2021/01/05 03:35:06;;;;;;;12.97;9.60;;;2.50;99.90;;;;;;5006606;28;20207;-61
2021/01/05 03:37:32;;;;;;;14.80;9.57;;;2.50;99.90;;;;;;5018226;28;20200;-62
2021/01/05 03:39:59;;;;;;;14.47;9.47;;;2.50;99.90;;;;;;5018454;28;20885;-62
2021/01/05 03:42:25;;;;;;;15.77;10.13;;;2.50;99.90;;;;;;5016126;28;20208;-62
2021/01/05 03:44:52;;;;;;;15.50;10.30;;;2.50;99.90;;;;;;5017421;28;20197;-61
2021/01/05 03:47:18;;;;;;;16.93;10.50;;;2.50;99.90;;;;;;5018012;28;20569;-62
2021/01/05 03:49:46;;;;;;;17.07;10.83;;;2.50;99.90;;;;;;5017769;28;20668;-63
2021/01/05 03:52:12;;;;;;;15.10;10.53;;;2.50;99.90;;;;;;5016460;28;20298;-61
2021/01/05 03:54:38;;;;;;;18.50;10.33;;;2.50;99.90;;;;;;5018531;28;20196;-61
2021/01/05 03:57:05;;;;;;;15.20;10.80;;;2.50;99.90;;;;;;5015692;28;20200;-61
2021/01/05 03:59:32;;;;;;;16.83;11.50;;;2.50;99.90;;;;;;5016376;28;20224;-61
2021/01/05 04:01:59;;;;;;;18.20;11.27;;;2.50;99.90;;;;;;5017520;28;20245;-61
2021/01/05 04:04:25;;;;;;;17.07;11.10;;;2.50;99.90;;;;;;5017157;28;20208;-62
2021/01/05 04:06:52;;;;;;;17.30;11.23;;;2.50;99.90;;;;;;5021432;28;20192;-63
2021/01/05 04:09:19;;;;;;;19.00;11.30;;;2.50;99.90;;;;;;5017182;28;20205;-61
2021/01/05 04:11:45;;;;;;;14.67;10.93;;;2.60;99.90;;;;;;5018375;28;20228;-63
2021/01/05 04:14:12;;;;;;;17.00;11.03;;;2.60;99.90;;;;;;5022759;28;20196;-63
2021/01/05 04:16:38;;;;;;;15.53;10.03;;;2.60;99.90;;;;;;5020042;28;20201;-62
2021/01/05 04:19:05;;;;;;;17.00;11.10;;;2.50;99.90;;;;;;5021332;28;20228;-63
2021/01/05 04:21:31;;;;;;;16.07;10.80;;;2.60;99.90;;;;;;5019870;28;20201;-62
2021/01/05 04:23:58;;;;;;;16.10;10.93;;;2.60;99.90;;;;;;5021513;28;20212;-62
2021/01/05 04:26:25;;;;;;;18.93;11.20;;;2.50;99.90;;;;;;5021161;28;20227;-63
2021/01/05 04:28:51;;;;;;;14.20;10.20;;;2.60;99.90;;;;;;5012880;28;20204;-61
2021/01/05 04:31:19;;;;;;;15.63;10.37;;;2.60;99.90;;;;;;5016014;28;20725;-61
2021/01/05 04:33:45;;;;;;;15.47;10.60;;;2.60;99.90;;;;;;5016855;28;20223;-63
2021/01/05 04:36:12;;;;;;;16.87;10.73;;;2.60;99.90;;;;;;5010602;28;20204;-62
2021/01/05 04:38:38;;;;;;;15.87;10.93;;;2.60;99.90;;;;;;5013153;28;20200;-61
2021/01/05 04:41:05;;;;;;;17.37;10.93;;;2.60;99.90;;;;;;5009073;28;20219;-62
2021/01/05 04:43:54;;;;;;;18.10;10.90;;;2.60;99.90;;;;;;5014835;28;20205;-61
2021/01/05 04:46:50;;;;;;;16.63;10.90;;;2.60;99.90;;;;;;5009357;28;20201;-62
2021/01/05 04:49:53;;;;;;;17.57;11.77;;;2.60;99.90;;;;;;5006630;28;20204;-62
2021/01/05 04:52:27;;;;;;;16.17;10.63;;;2.70;99.90;;;;;;5009167;28;20196;-62
2021/01/05 04:54:58;;;;;;;17.63;11.27;;;2.70;99.90;;;;;;5010139;28;20193;-62
2021/01/05 04:57:29;;;;;;;14.83;10.17;;;2.70;99.90;;;;;;5008671;28;20251;-63
2021/01/05 05:00:04;;;;;;;14.13;9.90;;;2.70;99.90;;;;;;5006965;28;20212;-63
2021/01/05 05:02:43;;;;;;;13.23;9.67;;;2.70;99.90;;;;;;5009373;28;20257;-62
2021/01/05 05:05:31;;;;;;;12.77;9.27;;;2.70;99.90;;;;;;5010246;28;20192;-61
2021/01/05 05:08:07;;;;;;;13.87;8.70;;;2.80;99.90;;;;;;5012091;28;20208;-62
2021/01/05 05:10:39;;;;;;;12.37;9.03;;;2.80;99.90;;;;;;5010222;28;20235;-63
2021/01/05 05:13:15;;;;;;;12.20;9.30;;;2.80;99.90;;;;;;5015479;28;20565;-62
2021/01/05 05:15:47;;;;;;;12.40;9.27;;;2.70;99.90;;;;;;5006131;28;20735;-62
2021/01/05 05:18:32;;;;;;;10.63;8.27;;;2.80;99.90;;;;;;5010806;28;20287;-62
2021/01/05 05:21:28;;;;;;;11.73;8.40;;;2.80;99.90;;;;;;5007042;28;20232;-63
2021/01/05 05:24:09;;;;;;;13.27;8.53;;;2.70;99.90;;;;;;5012529;28;20196;-62
2021/01/05 05:26:41;;;;;;;10.57;7.83;;;2.80;99.90;;;;;;5010668;28;20241;-62
2021/01/05 05:29:20;;;;;;;11.17;8.33;;;2.70;99.90;;;;;;5009786;28;20208;-62
2021/01/05 05:31:50;;;;;;;9.97;7.97;;;2.80;99.90;;;;;;5011512;28;20290;-62
2021/01/05 05:34:28;;;;;;;11.23;7.93;;;2.80;99.90;;;;;;5007518;28;20207;-63
2021/01/05 05:37:17;;;;;;;11.23;8.10;;;2.80;99.90;;;;;;5007898;28;20196;-62
2021/01/05 05:40:13;;;;;;;10.87;8.40;;;2.80;99.90;;;;;;5008225;28;20257;-62
2021/01/05 05:43:01;;;;;;;12.60;8.00;;;2.80;99.90;;;;;;5017263;28;20196;-62
2021/01/05 05:45:33;;;;;;;10.47;7.97;;;2.80;99.90;;;;;;5019761;28;20188;-62
2021/01/05 05:48:06;;;;;;;11.13;7.97;;;2.80;99.90;;;;;;5018955;28;20196;-62
2021/01/05 05:50:41;;;;;;;9.97;7.67;;;2.80;99.90;;;;;;5013670;28;20199;-61
2021/01/05 05:53:12;;;;;;;10.97;7.83;;;2.80;99.90;;;;;;5013538;28;20952;-62
2021/01/05 05:55:46;;;;;;;9.97;7.00;;;2.80;99.90;;;;;;5010793;28;20214;-61
2021/01/05 05:58:17;;;;;;;9.57;7.20;;;2.80;99.90;;;;;;5011994;28;20200;-62
2021/01/05 06:00:47;;;;;;;9.43;6.83;;;2.80;99.90;;;;;;5014355;28;20216;-62
2021/01/05 06:03:16;;;;;;;10.13;7.00;;;2.80;99.90;;;;;;5009375;28;20204;-61
2021/01/05 06:05:43;;;;;;;9.20;7.30;;;2.90;99.90;;;;;;5011650;28;20327;-61
2021/01/05 06:08:12;;;;;;;12.00;7.50;;;2.90;99.90;;;;;;5011811;28;20631;-61
2021/01/05 06:10:39;;;;;;;9.90;7.17;;;2.90;99.90;;;;;;5009679;28;20208;-63
2021/01/05 06:13:06;;;;;;;9.53;7.47;;;2.90;99.90;;;;;;5011015;28;20219;-61
2021/01/05 06:15:34;;;;;;;9.87;7.77;;;2.90;99.90;;;;;;5011291;28;20240;-62
2021/01/05 06:18:02;;;;;;;9.60;7.00;;;2.90;99.90;;;;;;5007337;28;20295;-64
2021/01/05 06:20:29;;;;;;;10.77;8.03;;;2.90;99.90;;;;;;5007106;28;20255;-62
2021/01/05 06:22:55;;;;;;;10.30;7.47;;;2.90;99.90;;;;;;5012776;28;20763;-62
2021/01/05 06:25:22;;;;;;;11.13;7.83;;;2.90;99.90;;;;;;5008372;28;20207;-63
2021/01/05 06:27:49;;;;;;;10.80;7.97;;;2.90;99.90;;;;;;5011021;28;20232;-62
2021/01/05 06:30:17;;;;;;;11.03;8.20;;;2.90;99.90;;;;;;5008247;28;20676;-62
2021/01/05 06:32:43;;;;;;;10.43;7.57;;;2.90;99.90;;;;;;5011071;28;20226;-62
2021/01/05 06:35:13;;;;;;;11.50;8.07;;;2.90;99.90;;;;;;5010798;28;20208;-63
2021/01/05 06:37:40;;;;;;;9.60;7.43;;;2.90;99.90;;;;;;5009307;28;20205;-61
2021/01/05 06:40:07;;;;;;;9.90;7.07;;;2.80;99.90;;;;;;5010975;28;20231;-62
2021/01/05 06:42:34;;;;;;;10.30;7.57;;;2.90;99.90;;;;;;5008193;28;20215;-63
2021/01/05 06:45:00;;;;;;;9.40;6.90;;;2.90;99.90;;;;;;5013178;28;20196;-61
2021/01/05 06:47:27;;;;;;;9.83;7.30;;;2.90;99.90;;;;;;5013204;28;20204;-62
2021/01/05 06:49:53;;;;;;;9.67;7.17;;;2.90;99.90;;;;;;5009790;28;20212;-63
2021/01/05 06:52:21;;;;;;;10.73;7.60;;;2.90;99.90;;;;;;5006335;28;20295;-61
2021/01/05 06:54:47;;;;;;;10.40;7.40;;;2.90;99.90;;;;;;5008153;28;20208;-61
2021/01/05 06:57:14;;;;;;;9.50;7.40;;;2.90;99.90;;;;;;5007445;28;20196;-62
2021/01/05 06:59:40;;;;;;;9.40;6.73;;;2.90;99.90;;;;;;5010635;28;20224;-63
2021/01/05 07:02:07;;;;;;;10.70;7.73;;;2.90;99.90;;;;;;5008126;28;20211;-61
2021/01/05 07:04:34;;;;;;;11.10;7.30;;;2.90;99.90;;;;;;5012380;28;21174;-61
2021/01/05 07:07:02;;;;;;;10.40;7.43;;;2.90;99.90;;;;;;5007767;28;20216;-62
2021/01/05 07:09:30;;;;;;;10.00;7.50;;;2.90;99.90;;;;;;5009890;28;20216;-62
2021/01/05 07:11:57;;;;;;;10.07;7.57;;;2.90;99.90;;;;;;5008754;28;20335;-61
2021/01/05 07:14:26;;;;;;;10.97;7.47;;;3.00;99.90;;;;;;5008106;28;20259;-63
2021/01/05 07:16:52;;;;;;;11.70;8.53;;;3.00;99.90;;;;;;5010949;28;20258;-62
2021/01/05 07:19:19;;;;;;;10.90;7.37;;;3.00;99.90;;;;;;5006755;28;20705;-62
2021/01/05 07:21:46;;;;;;;11.27;8.53;;;2.90;99.90;;;;;;5005815;28;20211;-62
2021/01/05 07:24:13;;;;;;;10.17;7.47;;;3.00;99.90;;;;;;5007311;28;20196;-62
2021/01/05 07:26:46;;;;;;;9.90;7.50;;;2.90;99.90;;;;;;5003698;28;20232;-62
2021/01/05 07:29:14;;;;;;;12.27;8.17;;;3.00;99.90;;;;;;5009424;28;20193;-61
2021/01/05 07:31:40;;;;;;;12.40;8.63;;;3.00;99.90;;;;;;5005619;28;20219;-62
2021/01/05 07:34:08;;;;;;;11.43;8.50;;;3.00;99.90;;;;;;5010476;28;20205;-63
2021/01/05 07:36:39;;;;;;;10.73;8.20;;;3.00;99.90;;;;;;5016601;28;20203;-62
2021/01/05 07:39:13;;;;;;;10.50;7.80;;;3.00;99.90;;;;;;5016543;28;20219;-62
2021/01/05 07:41:41;;;;;;;11.10;8.50;;;3.00;99.90;;;;;;5019501;28;20204;-64
2021/01/05 07:44:07;;;;;;;11.90;9.07;;;3.00;99.90;;;;;;5018735;28;20200;-61
2021/01/05 07:46:34;;;;;;;12.53;8.67;;;3.00;99.90;;;;;;5021247;28;20207;-64
2021/01/05 07:49:00;;;;;;;12.80;8.23;;;3.00;99.90;;;;;;5014716;28;20212;-62
2021/01/05 07:51:27;;;;;;;13.10;8.93;;;3.00;99.90;;;;;;5013571;28;20200;-62
2021/01/05 07:53:53;;;;;;;13.40;9.73;;;3.00;99.90;;;;;;5012683;28;21442;-74
2021/01/05 07:56:20;;;;;;;12.63;9.00;;;3.00;99.90;;;;;;5014518;28;20208;-64
2021/01/05 07:58:47;;;;;;;13.17;9.13;;;3.00;99.90;;;;;;5012000;28;20286;-65
2021/01/05 08:01:14;;;;;;;12.53;9.20;;;3.00;99.90;;;;;;5011648;28;20224;-65
2021/01/05 08:03:40;;;;;;;15.03;10.07;;;2.90;99.90;;;;;;5011456;28;20200;-62
2021/01/05 08:06:08;;;;;;;11.80;8.57;;;3.00;99.90;;;;;;5014906;28;20201;-61
2021/01/05 08:08:34;;;;;;;15.10;10.33;;;2.90;99.90;;;;;;5013043;28;20216;-62
2021/01/05 08:11:01;;;;;;;14.33;10.33;;;2.90;99.90;;;;;;5017440;28;20220;-61
2021/01/05 08:13:27;;;;;;;22.80;15.83;;;2.90;99.90;;;;;;5021389;28;22072;-64
2021/01/05 08:15:55;;;;;;;14.83;10.20;;;2.90;99.90;;;;;;5021862;28;20200;-63
2021/01/05 08:18:21;;;;;;;13.77;10.03;;;2.90;99.90;;;;;;5020160;28;20664;-63
2021/01/05 08:20:49;;;;;;;14.63;10.27;;;2.90;99.90;;;;;;5019591;28;20232;-61
2021/01/05 08:23:18;;;;;;;14.37;10.50;;;2.90;99.90;;;;;;5021986;28;20565;-63
2021/01/05 08:25:45;;;;;;;15.60;11.40;;;2.80;99.90;;;;;;5019887;28;20281;-65
2021/01/05 08:28:12;;;;;;;19.00;12.90;;;2.80;99.90;;;;;;5020956;28;20932;-65
2021/01/05 08:30:39;;;;;;;75.47;53.60;;;2.80;99.90;;;;;;5022102;28;20315;-63
2021/01/05 08:33:10;;;;;;;17.23;10.83;;;2.80;99.90;;;;;;5020415;28;20654;-64
2021/01/05 08:35:37;;;;;;;15.80;10.27;;;2.80;99.90;;;;;;5020681;28;20212;-66
2021/01/05 08:38:05;;;;;;;18.53;13.90;;;2.80;99.90;;;;;;5013416;28;20262;-62
2021/01/05 08:40:33;;;;;;;21.97;16.57;;;2.80;99.90;;;;;;5021197;28;20846;-62
2021/01/05 08:43:03;;;;;;;19.67;11.80;;;2.80;99.90;;;;;;5022331;28;20192;-64
2021/01/05 08:45:30;;;;;;;17.27;11.13;;;2.90;99.90;;;;;;5020929;28;20701;-62
2021/01/05 08:47:56;;;;;;;18.27;11.73;;;2.80;99.90;;;;;;5020949;28;20209;-63
2021/01/05 08:50:28;;;;;;;21.40;13.30;;;2.90;99.90;;;;;;5021933;28;20262;-64
2021/01/05 08:52:55;;;;;;;17.20;11.60;;;2.90;99.90;;;;;;5023131;28;20964;-62
2021/01/05 08:55:22;;;;;;;17.70;12.00;;;2.90;99.90;;;;;;5017545;28;20196;-64
2021/01/05 08:57:48;;;;;;;18.47;11.33;;;2.90;99.90;;;;;;5018375;28;20654;-61
2021/01/05 09:00:16;;;;;;;15.87;10.83;;;2.90;99.90;;;;;;5021290;28;20232;-65
2021/01/05 09:02:43;;;;;;;20.07;12.20;;;2.90;99.90;;;;;;5020517;28;20196;-62
2021/01/05 09:05:10;;;;;;;20.77;11.93;;;2.90;99.90;;;;;;5022495;28;20219;-64
2021/01/05 09:07:38;;;;;;;17.90;10.93;;;2.90;99.90;;;;;;5021622;28;20788;-63
2021/01/05 09:10:07;;;;;;;19.20;11.73;;;2.90;99.90;;;;;;5020993;28;20302;-63
2021/01/05 09:12:34;;;;;;;19.30;11.77;;;2.90;99.90;;;;;;5023160;28;21534;-62
2021/01/05 09:15:01;;;;;;;17.73;12.73;;;2.90;99.90;;;;;;5022186;28;20203;-61
2021/01/05 09:17:28;;;;;;;21.93;16.60;;;2.90;99.90;;;;;;5023478;28;20255;-63
2021/01/05 09:19:54;;;;;;;20.43;13.50;;;3.00;99.90;;;;;;5018691;28;20216;-63
2021/01/05 09:22:22;;;;;;;20.20;12.90;;;3.00;99.90;;;;;;5021655;28;20228;-64
2021/01/05 09:24:50;;;;;;;19.83;12.33;;;3.00;99.90;;;;;;5024148;28;20640;-63
2021/01/05 09:27:17;;;;;;;19.37;13.37;;;3.00;99.90;;;;;;5020645;28;20227;-63
2021/01/05 09:29:43;;;;;;;20.73;12.90;;;3.00;99.90;;;;;;5022242;28;20197;-63
2021/01/05 09:32:10;;;;;;;18.30;12.17;;;3.00;99.90;;;;;;5019755;28;20554;-63
2021/01/05 09:34:36;;;;;;;18.03;11.27;;;3.10;99.90;;;;;;5020118;28;20201;-63
2021/01/05 09:37:05;;;;;;;18.97;11.33;;;3.10;99.90;;;;;;5020350;28;20201;-62
2021/01/05 09:39:32;;;;;;;36.97;23.93;;;3.10;99.90;;;;;;5021599;28;20319;-63
2021/01/05 09:42:02;;;;;;;19.00;11.83;;;3.10;99.90;;;;;;5018724;28;20539;-64
2021/01/05 09:44:30;;;;;;;17.57;11.03;;;3.10;99.90;;;;;;5023276;28;20603;-62
2021/01/05 09:46:59;;;;;;;18.83;11.47;;;3.20;99.90;;;;;;5024049;28;20202;-62
2021/01/05 09:49:27;;;;;;;16.33;10.63;;;3.20;99.90;;;;;;5028669;28;20215;-62
2021/01/05 09:51:58;;;;;;;16.07;11.53;;;3.30;99.90;;;;;;5023949;28;20231;-72
2021/01/05 09:54:25;;;;;;;19.40;11.53;;;3.30;99.90;;;;;;5016637;28;20200;-64
2021/01/05 09:56:53;;;;;;;15.93;10.37;;;3.30;99.90;;;;;;5021588;28;20200;-65
2021/01/05 09:59:21;;;;;;;16.47;11.07;;;3.40;99.90;;;;;;5019629;28;20576;-64
2021/01/05 10:01:48;;;;;;;15.40;10.53;;;3.50;99.90;;;;;;5016971;28;20224;-64
2021/01/05 10:04:15;;;;;;;14.87;10.63;;;3.50;99.90;;;;;;5015485;28;20201;-63
2021/01/05 10:06:42;;;;;;;16.03;10.90;;;3.50;99.90;;;;;;5013304;28;20616;-63
2021/01/05 10:09:08;;;;;;;15.13;10.60;;;3.50;99.90;;;;;;5013913;28;20204;-64
2021/01/05 10:11:37;;;;;;;16.07;10.77;;;3.60;99.90;;;;;;5015526;28;20201;-65
2021/01/05 10:14:05;;;;;;;15.43;10.63;;;3.70;99.90;;;;;;5013074;28;20200;-61
2021/01/05 10:16:32;;;;;;;14.70;10.53;;;3.60;99.90;;;;;;5016608;28;20201;-63
2021/01/05 10:19:00;;;;;;;14.97;10.50;;;3.70;99.90;;;;;;5010818;28;20208;-64
2021/01/05 10:21:34;;;;;;;15.10;10.43;;;3.70;99.90;;;;;;5013984;28;20238;-62
2021/01/05 10:24:01;;;;;;;15.47;10.50;;;3.70;99.90;;;;;;5014617;28;21155;-63
2021/01/05 10:26:27;;;;;;;15.67;10.57;;;3.70;99.90;;;;;;5013818;28;20239;-62
2021/01/05 10:28:54;;;;;;;15.20;10.30;;;3.70;99.90;;;;;;5013437;28;20211;-65
2021/01/05 10:31:20;;;;;;;15.90;10.87;;;3.70;99.90;;;;;;5016666;28;20677;-64
2021/01/05 10:33:48;;;;;;;15.57;10.53;;;3.70;99.90;;;;;;5014540;28;20205;-64
2021/01/05 10:36:18;;;;;;;15.97;10.00;;;3.70;99.90;;;;;;5018003;28;20216;-63
2021/01/05 10:38:48;;;;;;;15.60;10.67;;;3.70;99.90;;;;;;5015216;28;20277;-64
2021/01/05 10:41:15;;;;;;;14.57;10.27;;;3.70;99.90;;;;;;5012966;28;20224;-63
2021/01/05 10:43:43;;;;;;;14.90;10.20;;;3.70;99.90;;;;;;5013542;28;20262;-65
2021/01/05 10:46:09;;;;;;;17.57;10.83;;;3.70;99.90;;;;;;5014327;28;20216;-64
2021/01/05 10:48:36;;;;;;;15.33;10.43;;;3.70;99.90;;;;;;5013038;28;20227;-63
2021/01/05 10:51:04;;;;;;;14.93;10.70;;;3.80;99.90;;;;;;5012981;28;20215;-62
2021/01/05 10:53:31;;;;;;;14.30;10.53;;;3.80;99.90;;;;;;5014170;28;20212;-60
2021/01/05 10:55:58;;;;;;;14.20;10.50;;;3.90;99.90;;;;;;5012941;28;20349;-62
2021/01/05 10:58:25;;;;;;;14.93;10.47;;;3.90;99.90;;;;;;5013350;28;20744;-64
2021/01/05 11:00:51;;;;;;;16.00;11.93;;;3.90;99.90;;;;;;5015888;28;20239;-64
2021/01/05 11:03:17;;;;;;;16.53;11.07;;;3.80;99.90;;;;;;5015841;28;20262;-63
2021/01/05 11:05:44;;;;;;;16.23;11.63;;;3.80;99.90;;;;;;5012769;28;20201;-66
2021/01/05 11:08:11;;;;;;;16.47;11.13;;;3.80;99.90;;;;;;5016620;28;20538;-63
2021/01/05 11:10:38;;;;;;;13.63;9.90;;;3.80;99.90;;;;;;5014134;28;20229;-64
2021/01/05 11:13:04;;;;;;;16.10;11.13;;;3.80;99.90;;;;;;5017308;28;20261;-66
2021/01/05 11:15:31;;;;;;;15.67;11.50;;;3.80;99.90;;;;;;5016159;28;20223;-62
2021/01/05 11:17:57;;;;;;;14.53;10.53;;;3.90;99.90;;;;;;5013186;28;20212;-64
2021/01/05 11:20:24;;;;;;;15.30;11.17;;;3.80;99.90;;;;;;5014204;28;20232;-62
2021/01/05 11:22:51;;;;;;;15.27;10.53;;;3.80;99.90;;;;;;5014164;28;20212;-63
2021/01/05 11:25:19;;;;;;;16.63;11.07;;;3.80;99.90;;;;;;5013211;28;20213;-64
2021/01/05 11:27:46;;;;;;;16.27;11.67;;;3.80;99.90;;;;;;5016280;28;20602;-63
2021/01/05 11:30:19;;;;;;;14.40;10.53;;;3.90;99.90;;;;;;5014370;28;20204;-63
2021/01/05 11:32:46;;;;;;;14.57;10.53;;;3.90;99.90;;;;;;5014681;28;20205;-64
2021/01/05 11:35:14;;;;;;;14.73;10.47;;;3.90;99.90;;;;;;5012317;28;20212;-64
2021/01/05 11:37:40;;;;;;;15.77;11.03;;;3.90;99.90;;;;;;5013996;28;20263;-64
2021/01/05 11:40:08;;;;;;;16.73;12.43;;;3.90;99.90;;;;;;5012232;28;20228;-62
2021/01/05 11:42:36;;;;;;;16.73;12.10;;;3.80;99.90;;;;;;5014409;28;20681;-64
2021/01/05 11:45:04;;;;;;;15.80;11.20;;;3.90;99.90;;;;;;5013710;28;20211;-63
2021/01/05 11:47:30;;;;;;;17.30;12.03;;;3.90;99.90;;;;;;5013020;28;20767;-63
2021/01/05 11:49:58;;;;;;;18.43;11.83;;;4.00;99.90;;;;;;5013339;28;20262;-64
2021/01/05 11:52:25;;;;;;;16.00;12.10;;;4.00;99.90;;;;;;5017618;28;20214;-64
2021/01/05 11:54:51;;;;;;;17.70;12.60;;;4.00;99.90;;;;;;5020508;28;20213;-64
2021/01/05 11:57:18;;;;;;;14.97;11.83;;;4.00;99.90;;;;;;5019598;28;20200;-64
2021/01/05 11:59:45;;;;;;;16.57;12.13;;;4.00;99.90;;;;;;5017850;28;20256;-64
2021/01/05 12:02:12;;;;;;;17.03;12.27;;;4.00;99.90;;;;;;5016536;28;20678;-64
2021/01/05 12:04:39;;;;;;;14.83;11.47;;;4.00;99.90;;;;;;5013441;28;20204;-64
2021/01/05 12:07:06;;;;;;;16.93;11.77;;;3.90;99.90;;;;;;5013030;28;20254;-63
2021/01/05 12:09:33;;;;;;;16.50;11.33;;;3.90;99.90;;;;;;5013949;28;20231;-64
2021/01/05 12:12:01;;;;;;;17.03;12.30;;;3.90;99.90;;;;;;5013847;28;20200;-64
2021/01/05 12:14:27;;;;;;;16.83;11.33;;;3.90;99.90;;;;;;5010041;28;20658;-63
2021/01/05 12:16:58;;;;;;;15.83;11.50;;;4.00;99.90;;;;;;5012997;28;20237;-64
2021/01/05 12:19:26;;;;;;;16.30;12.53;;;4.00;99.90;;;;;;5011644;28;20201;-64
2021/01/05 12:21:56;;;;;;;18.30;12.23;;;4.00;99.90;;;;;;5011509;28;20208;-64
2021/01/05 12:24:25;;;;;;;17.30;12.47;;;4.00;99.90;;;;;;5016648;28;20247;-64
2021/01/05 12:26:52;;;;;;;20.17;12.70;;;4.00;99.90;;;;;;5014468;28;20235;-64
2021/01/05 12:29:20;;;;;;;17.77;12.40;;;4.10;99.90;;;;;;5013863;28;20201;-64
2021/01/05 12:31:50;;;;;;;18.30;12.17;;;4.00;99.90;;;;;;5016186;28;20838;-65
2021/01/05 12:34:20;;;;;;;19.33;12.07;;;4.00;99.90;;;;;;5022433;28;20204;-64
2021/01/05 12:36:46;;;;;;;20.23;13.00;;;4.00;99.90;;;;;;5017692;28;20200;-65
2021/01/05 12:39:16;;;;;;;16.73;12.23;;;4.00;99.90;;;;;;5019370;28;20224;-65
2021/01/05 12:41:43;;;;;;;16.60;11.40;;;4.00;99.90;;;;;;5018628;28;20227;-63
2021/01/05 12:44:13;;;;;;;16.50;11.33;;;4.00;99.90;;;;;;5017773;28;20658;-62
2021/01/05 12:46:39;;;;;;;17.70;11.13;;;4.00;99.90;;;;;;5014286;28;22108;-65
2021/01/05 12:49:08;;;;;;;17.53;12.10;;;4.00;99.90;;;;;;5018860;28;20208;-64
2021/01/05 12:51:37;;;;;;;16.23;10.83;;;4.00;99.90;;;;;;5017990;28;20408;-63
2021/01/05 12:54:05;;;;;;;16.63;11.90;;;4.00;99.90;;;;;;5012470;28;20203;-68
2021/01/05 12:56:31;;;;;;;15.07;10.47;;;4.10;99.90;;;;;;5011372;28;20208;-64
2021/01/05 12:58:58;;;;;;;15.03;11.40;;;4.00;99.90;;;;;;5011879;28;20200;-63